createdAt,value
2022-09-28T00:05:02.479Z,21.6
2022-09-28T00:20:02.590Z,21.6
2022-09-28T00:35:06.332Z,21.6
2022-09-28T00:50:06.215Z,21.6
2022-09-28T01:05:04.614Z,21.5
2022-09-28T01:20:05.291Z,21.5
2022-09-28T01:35:03.419Z,21.5
2022-09-28T01:50:05.509Z,21.4
2022-09-28T02:05:06.502Z,21.4
2022-09-28T02:20:05.313Z,21.4
2022-09-28T02:35:04.522Z,21.4
2022-09-28T02:50:04.492Z,21.4
2022-09-28T03:05:05.238Z,21.4
2022-09-28T03:20:03.373Z,21.3
2022-09-28T03:35:03.510Z,21.3
2022-09-28T03:50:05.537Z,21.3
2022-09-28T04:05:02.343Z,21.2
2022-09-28T04:20:06.315Z,21.1
2022-09-28T04:35:04.214Z,21.1
2022-09-28T04:50:05.179Z,21
2022-09-28T05:05:06.212Z,20.9
2022-09-28T05:20:06.094Z,21
2022-09-28T05:35:02.213Z,20.9
2022-09-28T05:50:04.293Z,20.9
2022-09-28T06:05:03.508Z,21
2022-09-28T06:20:02.295Z,21.1
2022-09-28T06:35:03.351Z,21.1
2022-09-28T06:50:04.176Z,21.1
2022-09-28T07:05:05.185Z,21.1
2022-09-28T07:20:05.433Z,21.1
2022-09-28T07:35:06.205Z,21.1
2022-09-28T07:50:04.583Z,21.2
2022-09-28T08:05:03.105Z,21.3
2022-09-28T08:20:03.291Z,21.4
2022-09-28T08:35:03.213Z,21.5
2022-09-28T08:50:05.301Z,21.6
2022-09-28T09:05:04.341Z,21.7
2022-09-28T09:20:05.196Z,21.8
2022-09-28T09:35:06.338Z,21.8
2022-09-28T09:50:06.577Z,21.9
2022-09-28T10:05:03.332Z,21.9
2022-09-28T10:20:02.580Z,21.8
2022-09-28T10:35:03.126Z,21.8
2022-09-28T10:50:04.228Z,21.7
2022-09-28T11:05:05.504Z,21.6
2022-09-28T11:20:03.317Z,21.5
2022-09-28T11:35:05.152Z,21.5
2022-09-28T11:50:05.262Z,21.4
2022-09-28T12:05:05.583Z,21.4
2022-09-28T12:20:06.460Z,21.4
2022-09-28T12:35:04.519Z,21.5
2022-09-28T12:50:03.691Z,21.5
2022-09-28T13:05:02.351Z,21.5
2022-09-28T13:25:04.544Z,21.6
2022-09-28T13:40:02.558Z,21.7
2022-09-28T13:55:06.468Z,21.8
2022-09-28T14:25:05.223Z,22
2022-09-28T14:45:03.619Z,22
2022-09-28T15:00:04.296Z,22.1
2022-09-28T15:15:04.565Z,22.2
2022-09-28T15:30:06.185Z,22.3
2022-09-28T16:00:05.308Z,22.4
2022-09-28T16:15:02.110Z,22.3
2022-09-28T16:30:06.509Z,22.3
2022-09-28T16:45:03.346Z,22.3
2022-09-28T17:00:06.082Z,22.2
2022-09-28T17:15:05.524Z,22.2
2022-09-28T17:30:05.430Z,22.2
2022-09-28T17:45:05.543Z,22.1
2022-09-28T18:00:03.149Z,22.1
2022-09-28T18:15:02.462Z,22
2022-09-28T18:30:03.522Z,22
2022-09-28T18:45:02.302Z,22
2022-09-28T19:00:02.361Z,22
2022-09-28T19:15:05.451Z,22
2022-09-28T19:30:05.423Z,21.9
2022-09-28T19:45:05.700Z,21.9
2022-09-28T20:00:03.339Z,21.9
2022-09-28T20:15:06.375Z,21.8
2022-09-28T20:30:05.464Z,21.8
2022-09-28T20:45:06.435Z,21.8
2022-09-28T21:00:05.276Z,21.7
2022-09-28T21:15:03.305Z,21.7
2022-09-28T21:30:05.497Z,21.6
2022-09-28T21:45:05.652Z,21.6
2022-09-28T22:00:03.967Z,21.5
2022-09-28T22:15:05.291Z,21.5
2022-09-28T22:45:06.442Z,21.4
2022-09-28T23:00:06.111Z,21.4
2022-09-28T23:15:04.297Z,21.4
2022-09-28T23:30:03.524Z,21.4
2022-09-28T23:45:05.147Z,21.4
